sensor_id;sensor_type;location;lat;lon;timestamp;pressure;altitude;pressure_sealevel;temperature;humidity
13013;BME280;22580;57.670;12.006;2023-09-08T00:00:46;102258.84;;;26.60;84.51
13013;BME280;22580;57.670;12.006;2023-09-08T00:03:13;102258.16;;;26.58;84.61
13013;BME280;22580;57.670;12.006;2023-09-08T00:05:41;102264.72;;;26.49;84.40
13013;BME280;22580;57.670;12.006;2023-09-08T00:08:11;102253.06;;;26.47;84.64
13013;BME280;22580;57.670;12.006;2023-09-08T00:10:39;102255.09;;;26.53;84.50
13013;BME280;22580;57.670;12.006;2023-09-08T00:13:07;102240.75;;;26.43;84.47
13013;BME280;22580;57.670;12.006;2023-09-08T00:15:35;102246.03;;;26.44;84.72
13013;BME280;22580;57.670;12.006;2023-09-08T00:18:03;102255.44;;;26.50;84.62
13013;BME280;22580;57.670;12.006;2023-09-08T00:20:30;102262.84;;;26.41;84.55
13013;BME280;22580;57.670;12.006;2023-09-08T00:22:57;102259.59;;;26.38;84.73
13013;BME280;22580;57.670;12.006;2023-09-08T00:25:24;102261.31;;;26.39;84.89
13013;BME280;22580;57.670;12.006;2023-09-08T00:27:53;102259.59;;;26.38;85.52
13013;BME280;22580;57.670;12.006;2023-09-08T00:30:20;102249.66;;;26.37;85.37
13013;BME280;22580;57.670;12.006;2023-09-08T00:32:47;102264.72;;;26.49;85.32
13013;BME280;22580;57.670;12.006;2023-09-08T00:35:14;102254.25;;;26.53;85.00
13013;BME280;22580;57.670;12.006;2023-09-08T00:37:42;102261.47;;;26.45;85.51
13013;BME280;22580;57.670;12.006;2023-09-08T00:40:10;102218.88;;;26.10;86.00
13013;BME280;22580;57.670;12.006;2023-09-08T00:42:37;102253.78;;;26.41;85.31
13013;BME280;22580;57.670;12.006;2023-09-08T00:45:09;102243.47;;;26.43;85.29
13013;BME280;22580;57.670;12.006;2023-09-08T00:47:36;102237.84;;;26.28;85.53
13013;BME280;22580;57.670;12.006;2023-09-08T00:50:04;102255.13;;;26.45;85.28
13013;BME280;22580;57.670;12.006;2023-09-08T00:52:32;102242.97;;;26.39;85.72
13013;BME280;22580;57.670;12.006;2023-09-08T00:54:59;102252.03;;;26.48;85.00
13013;BME280;22580;57.670;12.006;2023-09-08T00:57:27;102249.13;;;26.50;84.85
13013;BME280;22580;57.670;12.006;2023-09-08T00:59:55;102253.06;;;26.47;84.71
13013;BME280;22580;57.670;12.006;2023-09-08T01:02:23;102248.44;;;26.48;85.00
13013;BME280;22580;57.670;12.006;2023-09-08T01:04:52;102252.38;;;26.45;84.56
13013;BME280;22580;57.670;12.006;2023-09-08T01:07:20;102247.09;;;26.35;84.79
13013;BME280;22580;57.670;12.006;2023-09-08T01:09:48;102245.41;;;26.34;84.65
13013;BME280;22580;57.670;12.006;2023-09-08T01:12:19;102247.59;;;26.31;85.13
13013;BME280;22580;57.670;12.006;2023-09-08T01:14:48;102253.09;;;26.31;85.53
13013;BME280;22580;57.670;12.006;2023-09-08T01:17:15;102244.72;;;26.16;86.17
13013;BME280;22580;57.670;12.006;2023-09-08T01:19:45;102234.09;;;26.13;86.44
13013;BME280;22580;57.670;12.006;2023-09-08T01:22:23;102249.00;;;26.10;86.66
13013;BME280;22580;57.670;12.006;2023-09-08T01:25:15;102249.19;;;26.09;87.12
13013;BME280;22580;57.670;12.006;2023-09-08T01:27:46;102241.66;;;26.03;87.39
13013;BME280;22580;57.670;12.006;2023-09-08T01:30:15;102239.31;;;26.00;87.54
13013;BME280;22580;57.670;12.006;2023-09-08T01:32:43;102249.03;;;26.02;87.41
13013;BME280;22580;57.670;12.006;2023-09-08T01:35:11;102245.97;;;25.97;87.81
13013;BME280;22580;57.670;12.006;2023-09-08T01:37:43;102242.56;;;25.95;87.56
13013;BME280;22580;57.670;12.006;2023-09-08T01:40:11;102228.34;;;25.92;87.67
13013;BME280;22580;57.670;12.006;2023-09-08T01:42:40;102240.50;;;25.97;87.48
13013;BME280;22580;57.670;12.006;2023-09-08T01:45:08;102229.38;;;25.99;86.93
13013;BME280;22580;57.670;12.006;2023-09-08T01:47:36;102237.94;;;25.88;87.24
13013;BME280;22580;57.670;12.006;2023-09-08T01:50:03;102235.91;;;25.82;87.67
13013;BME280;22580;57.670;12.006;2023-09-08T01:52:32;102241.72;;;25.87;87.41
13013;BME280;22580;57.670;12.006;2023-09-08T01:54:59;102241.38;;;25.82;87.74
13013;BME280;22580;57.670;12.006;2023-09-08T01:57:26;102235.91;;;25.73;87.97
13013;BME280;22580;57.670;12.006;2023-09-08T01:59:55;102233.34;;;25.72;88.17
13013;BME280;22580;57.670;12.006;2023-09-08T02:02:22;102237.09;;;25.79;88.10
13013;BME280;22580;57.670;12.006;2023-09-08T02:04:49;102234.53;;;25.77;88.04
13013;BME280;22580;57.670;12.006;2023-09-08T02:07:17;102228.88;;;25.71;88.49
13013;BME280;22580;57.670;12.006;2023-09-08T02:09:45;102236.25;;;25.78;88.57
13013;BME280;22580;57.670;12.006;2023-09-08T02:12:12;102217.59;;;25.66;89.51
13013;BME280;22580;57.670;12.006;2023-09-08T02:14:39;102221.53;;;25.71;89.88
13013;BME280;22580;57.670;12.006;2023-09-08T02:17:07;102224.78;;;25.83;89.65
13013;BME280;22580;57.670;12.006;2023-09-08T02:19:35;102231.44;;;25.89;89.68
13013;BME280;22580;57.670;12.006;2023-09-08T02:22:02;102224.25;;;25.88;89.48
13013;BME280;22580;57.670;12.006;2023-09-08T02:24:29;102212.94;;;25.91;89.68
13013;BME280;22580;57.670;12.006;2023-09-08T02:26:56;102220.13;;;26.00;89.80
13013;BME280;22580;57.670;12.006;2023-09-08T02:29:24;102220.63;;;25.95;90.05
13013;BME280;22580;57.670;12.006;2023-09-08T02:31:51;102209.00;;;25.85;90.80
13013;BME280;22580;57.670;12.006;2023-09-08T02:34:19;102203.19;;;25.88;90.70
13013;BME280;22580;57.670;12.006;2023-09-08T02:36:46;102187.09;;;25.85;90.65
13013;BME280;22580;57.670;12.006;2023-09-08T02:39:16;102192.25;;;25.80;91.01
13013;BME280;22580;57.670;12.006;2023-09-08T02:41:43;102209.00;;;25.93;90.79
13013;BME280;22580;57.670;12.006;2023-09-08T02:44:10;102206.59;;;25.90;90.89
13013;BME280;22580;57.670;12.006;2023-09-08T02:46:38;102194.63;;;25.75;91.65
13013;BME280;22580;57.670;12.006;2023-09-08T02:49:06;102208.50;;;25.82;91.72
13013;BME280;22580;57.670;12.006;2023-09-08T02:51:34;102202.69;;;25.85;91.64
13013;BME280;22580;57.670;12.006;2023-09-08T02:54:02;102194.97;;;25.80;92.16
13013;BME280;22580;57.670;12.006;2023-09-08T02:56:29;102194.47;;;25.85;92.07
13013;BME280;22580;57.670;12.006;2023-09-08T02:58:56;102197.72;;;25.88;92.02
13013;BME280;22580;57.670;12.006;2023-09-08T03:01:23;102200.78;;;25.85;92.07
13013;BME280;22580;57.670;12.006;2023-09-08T03:03:51;102203.03;;;25.82;92.49
13013;BME280;22580;57.670;12.006;2023-09-08T03:06:19;102202.00;;;25.83;92.62
13013;BME280;22580;57.670;12.006;2023-09-08T03:08:48;102199.94;;;25.85;92.62
13013;BME280;22580;57.670;12.006;2023-09-08T03:11:15;102188.63;;;25.88;92.33
13013;BME280;22580;57.670;12.006;2023-09-08T03:13:42;102187.44;;;25.90;92.35
13013;BME280;22580;57.670;12.006;2023-09-08T03:16:09;102200.56;;;26.03;92.08
13013;BME280;22580;57.670;12.006;2023-09-08T03:18:36;102200.09;;;25.83;92.86
13013;BME280;22580;57.670;12.006;2023-09-08T03:21:04;102210.66;;;26.02;92.62
13013;BME280;22580;57.670;12.006;2023-09-08T03:23:36;102204.31;;;26.10;92.51
13013;BME280;22580;57.670;12.006;2023-09-08T03:26:05;102173.31;;;26.01;92.23
13013;BME280;22580;57.670;12.006;2023-09-08T03:28:33;102187.19;;;26.08;92.06
13013;BME280;22580;57.670;12.006;2023-09-08T03:31:01;102201.00;;;26.23;92.05
13013;BME280;22580;57.670;12.006;2023-09-08T03:33:28;102186.97;;;26.18;91.54
13013;BME280;22580;57.670;12.006;2023-09-08T03:35:57;102207.50;;;26.30;91.51
13013;BME280;22580;57.670;12.006;2023-09-08T03:38:26;102193.28;;;26.26;91.23
13013;BME280;22580;57.670;12.006;2023-09-08T03:40:53;102177.38;;;26.22;90.80
13013;BME280;22580;57.670;12.006;2023-09-08T03:43:22;102192.47;;;26.18;91.16
13013;BME280;22580;57.670;12.006;2023-09-08T03:45:48;102189.69;;;26.26;91.29
13013;BME280;22580;57.670;12.006;2023-09-08T03:48:15;102189.38;;;26.21;91.17
13013;BME280;22580;57.670;12.006;2023-09-08T03:50:44;102191.25;;;26.20;91.24
13013;BME280;22580;57.670;12.006;2023-09-08T03:53:12;102172.78;;;26.06;91.53
13013;BME280;22580;57.670;12.006;2023-09-08T03:55:39;102191.44;;;26.19;91.76
13013;BME280;22580;57.670;12.006;2023-09-08T03:58:06;102183.06;;;26.12;92.12
13013;BME280;22580;57.670;12.006;2023-09-08T04:00:36;102158.25;;;26.05;91.85
13013;BME280;22580;57.670;12.006;2023-09-08T04:03:03;102172.75;;;26.22;91.07
13013;BME280;22580;57.670;12.006;2023-09-08T04:05:31;102185.25;;;26.25;91.39
13013;BME280;22580;57.670;12.006;2023-09-08T04:07:58;102171.84;;;26.30;91.02
13013;BME280;22580;57.670;12.006;2023-09-08T04:10:25;102182.50;;;26.25;90.85
13013;BME280;22580;57.670;12.006;2023-09-08T04:12:53;102171.38;;;26.18;91.19
13013;BME280;22580;57.670;12.006;2023-09-08T04:15:20;102174.31;;;26.17;91.06
13013;BME280;22580;57.670;12.006;2023-09-08T04:17:49;102165.22;;;26.16;91.02
13013;BME280;22580;57.670;12.006;2023-09-08T04:20:16;102166.91;;;26.25;90.92
13013;BME280;22580;57.670;12.006;2023-09-08T04:22:44;102169.69;;;26.09;91.65
13013;BME280;22580;57.670;12.006;2023-09-08T04:25:13;102164.03;;;26.10;91.82
13013;BME280;22580;57.670;12.006;2023-09-08T04:27:41;102167.66;;;26.03;92.26
13013;BME280;22580;57.670;12.006;2023-09-08T04:30:08;102161.34;;;26.02;91.96
13013;BME280;22580;57.670;12.006;2023-09-08T04:32:36;102163.03;;;26.03;91.67
13013;BME280;22580;57.670;12.006;2023-09-08T04:35:06;102149.75;;;25.92;91.99
13013;BME280;22580;57.670;12.006;2023-09-08T04:37:33;102158.75;;;26.01;91.62
13013;BME280;22580;57.670;12.006;2023-09-08T04:40:02;102129.56;;;25.85;91.61
13013;BME280;22580;57.670;12.006;2023-09-08T04:42:29;102150.75;;;25.99;91.82
13013;BME280;22580;57.670;12.006;2023-09-08T04:44:57;102165.75;;;26.11;91.57
13013;BME280;22580;57.670;12.006;2023-09-08T04:47:23;102152.59;;;26.07;91.39
13013;BME280;22580;57.670;12.006;2023-09-08T04:49:50;102138.84;;;26.15;90.73
13013;BME280;22580;57.670;12.006;2023-09-08T04:52:19;102159.00;;;26.30;90.49
13013;BME280;22580;57.670;12.006;2023-09-08T04:54:47;102157.00;;;26.16;91.06
13013;BME280;22580;57.670;12.006;2023-09-08T04:57:14;102159.38;;;26.27;90.68
13013;BME280;22580;57.670;12.006;2023-09-08T04:59:41;102161.91;;;26.37;90.53
13013;BME280;22580;57.670;12.006;2023-09-08T05:02:08;102162.09;;;26.35;90.20
13013;BME280;22580;57.670;12.006;2023-09-08T05:04:35;102156.72;;;26.50;89.90
13013;BME280;22580;57.670;12.006;2023-09-08T05:07:02;102168.00;;;26.55;89.73
13013;BME280;22580;57.670;12.006;2023-09-08T05:09:31;102162.59;;;26.39;90.68
13013;BME280;22580;57.670;12.006;2023-09-08T05:11:58;102156.25;;;26.30;90.33
13013;BME280;22580;57.670;12.006;2023-09-08T05:14:26;102171.19;;;26.36;90.12
13013;BME280;22580;57.670;12.006;2023-09-08T05:16:53;102170.81;;;26.31;90.34
13013;BME280;22580;57.670;12.006;2023-09-08T05:19:21;102172.88;;;26.29;90.70
13013;BME280;22580;57.670;12.006;2023-09-08T05:21:50;102170.84;;;26.23;90.80
13013;BME280;22580;57.670;12.006;2023-09-08T05:24:17;102166.06;;;26.25;90.44
13013;BME280;22580;57.670;12.006;2023-09-08T05:26:46;102178.72;;;26.34;90.74
13013;BME280;22580;57.670;12.006;2023-09-08T05:29:13;102165.53;;;26.37;90.26
13013;BME280;22580;57.670;12.006;2023-09-08T05:31:40;102148.41;;;26.27;90.26
13013;BME280;22580;57.670;12.006;2023-09-08T05:34:07;102172.00;;;26.44;90.15
13013;BME280;22580;57.670;12.006;2023-09-08T05:36:34;102164.63;;;26.45;89.41
13013;BME280;22580;57.670;12.006;2023-09-08T05:39:04;102170.94;;;26.54;89.51
13013;BME280;22580;57.670;12.006;2023-09-08T05:41:31;102165.94;;;26.57;89.53
13013;BME280;22580;57.670;12.006;2023-09-08T05:44:01;102169.53;;;26.58;89.30
13013;BME280;22580;57.670;12.006;2023-09-08T05:46:28;102123.41;;;26.22;89.68
13013;BME280;22580;57.670;12.006;2023-09-08T05:48:55;102168.94;;;26.39;89.68
13013;BME280;22580;57.670;12.006;2023-09-08T05:51:23;102166.38;;;26.30;90.07
13013;BME280;22580;57.670;12.006;2023-09-08T05:53:50;102164.50;;;26.30;90.65
13013;BME280;22580;57.670;12.006;2023-09-08T05:56:18;102158.13;;;26.46;90.74
13013;BME280;22580;57.670;12.006;2023-09-08T05:58:46;102158.03;;;26.62;89.66
13013;BME280;22580;57.670;12.006;2023-09-08T06:01:15;102160.59;;;26.64;89.43
13013;BME280;22580;57.670;12.006;2023-09-08T06:03:42;102136.53;;;26.43;88.99
13013;BME280;22580;57.670;12.006;2023-09-08T06:06:09;102129.41;;;25.78;91.25
13013;BME280;22580;57.670;12.006;2023-09-08T06:08:36;102133.31;;;25.92;90.35
13013;BME280;22580;57.670;12.006;2023-09-08T06:11:04;102142.97;;;26.11;90.55
13013;BME280;22580;57.670;12.006;2023-09-08T06:13:31;102151.19;;;26.11;90.58
13013;BME280;22580;57.670;12.006;2023-09-08T06:15:58;102163.34;;;26.17;90.75
13013;BME280;22580;57.670;12.006;2023-09-08T06:18:28;102164.56;;;26.06;91.28
13013;BME280;22580;57.670;12.006;2023-09-08T06:20:55;102160.06;;;25.66;92.51
13013;BME280;22580;57.670;12.006;2023-09-08T06:23:23;102123.97;;;25.30;93.42
13013;BME280;22580;57.670;12.006;2023-09-08T06:25:56;102137.47;;;25.47;92.70
13013;BME280;22580;57.670;12.006;2023-09-08T06:28:25;102156.63;;;25.56;93.13
13013;BME280;22580;57.670;12.006;2023-09-08T06:30:52;102155.25;;;25.52;93.46
13013;BME280;22580;57.670;12.006;2023-09-08T06:33:20;102161.78;;;25.67;93.05
13013;BME280;22580;57.670;12.006;2023-09-08T06:35:50;102147.22;;;25.42;93.53
13013;BME280;22580;57.670;12.006;2023-09-08T06:38:22;102121.41;;;25.28;93.25
13013;BME280;22580;57.670;12.006;2023-09-08T06:40:49;102113.00;;;25.46;92.89
13013;BME280;22580;57.670;12.006;2023-09-08T06:43:18;102138.03;;;25.10;94.53
13013;BME280;22580;57.670;12.006;2023-09-08T06:45:47;102137.63;;;25.62;93.05
13013;BME280;22580;57.670;12.006;2023-09-08T06:48:14;102127.19;;;25.66;92.98
13013;BME280;22580;57.670;12.006;2023-09-08T06:50:41;102126.19;;;25.26;94.42
13013;BME280;22580;57.670;12.006;2023-09-08T06:53:10;102147.41;;;25.48;94.39
13013;BME280;22580;57.670;12.006;2023-09-08T06:55:38;102131.31;;;25.70;93.19
13013;BME280;22580;57.670;12.006;2023-09-08T06:58:05;102146.38;;;25.33;94.14
13013;BME280;22580;57.670;12.006;2023-09-08T07:00:32;102140.88;;;25.82;94.00
13013;BME280;22580;57.670;12.006;2023-09-08T07:02:59;102134.78;;;26.03;92.82
13013;BME280;22580;57.670;12.006;2023-09-08T07:05:27;102136.25;;;26.22;92.27
13013;BME280;22580;57.670;12.006;2023-09-08T07:07:55;102134.50;;;26.37;91.50
13013;BME280;22580;57.670;12.006;2023-09-08T07:10:24;102124.13;;;26.55;90.72
13013;BME280;22580;57.670;12.006;2023-09-08T07:12:51;102136.94;;;26.63;90.04
13013;BME280;22580;57.670;12.006;2023-09-08T07:15:18;102128.66;;;26.71;89.47
13013;BME280;22580;57.670;12.006;2023-09-08T07:17:45;102123.78;;;26.81;89.71
13013;BME280;22580;57.670;12.006;2023-09-08T07:20:11;102108.72;;;26.77;88.98
13013;BME280;22580;57.670;12.006;2023-09-08T07:22:39;102114.41;;;26.75;88.85
13013;BME280;22580;57.670;12.006;2023-09-08T07:25:07;102134.00;;;26.87;88.53
13013;BME280;22580;57.670;12.006;2023-09-08T07:27:43;102130.03;;;26.90;88.42
13013;BME280;22580;57.670;12.006;2023-09-08T07:30:10;102125.72;;;26.95;89.13
13013;BME280;22580;57.670;12.006;2023-09-08T07:32:37;102120.47;;;26.63;89.72
13013;BME280;22580;57.670;12.006;2023-09-08T07:35:05;102101.53;;;26.76;89.41
13013;BME280;22580;57.670;12.006;2023-09-08T07:37:39;102124.38;;;26.91;88.94
13013;BME280;22580;57.670;12.006;2023-09-08T07:40:07;102124.56;;;26.90;88.83
13013;BME280;22580;57.670;12.006;2023-09-08T07:42:35;102120.88;;;27.05;88.43
13013;BME280;22580;57.670;12.006;2023-09-08T07:45:05;102116.91;;;26.85;89.07
13013;BME280;22580;57.670;12.006;2023-09-08T07:47:32;102107.06;;;26.68;90.38
13013;BME280;22580;57.670;12.006;2023-09-08T07:50:17;102105.50;;;26.42;89.77
13013;BME280;22580;57.670;12.006;2023-09-08T07:52:47;102113.16;;;26.16;90.42
13013;BME280;22580;57.670;12.006;2023-09-08T07:55:17;102118.72;;;26.39;90.41
13013;BME280;22580;57.670;12.006;2023-09-08T07:57:50;102115.69;;;26.26;90.75
13013;BME280;22580;57.670;12.006;2023-09-08T08:00:21;102106.53;;;26.02;91.99
13013;BME280;22580;57.670;12.006;2023-09-08T08:02:49;102111.59;;;26.22;91.50
13013;BME280;22580;57.670;12.006;2023-09-08T08:05:25;102102.69;;;26.20;91.20
13013;BME280;22580;57.670;12.006;2023-09-08T08:07:52;102093.09;;;26.16;91.56
13013;BME280;22580;57.670;12.006;2023-09-08T08:10:19;102105.78;;;26.17;91.68
13013;BME280;22580;57.670;12.006;2023-09-08T08:12:46;102073.59;;;26.10;91.52
13013;BME280;22580;57.670;12.006;2023-09-08T08:15:13;102095.31;;;26.20;91.50
13013;BME280;22580;57.670;12.006;2023-09-08T08:17:42;102078.00;;;26.20;91.73
13013;BME280;22580;57.670;12.006;2023-09-08T08:20:10;102065.03;;;26.13;91.51
13013;BME280;22580;57.670;12.006;2023-09-08T08:22:42;102080.34;;;26.31;91.85
13013;BME280;22580;57.670;12.006;2023-09-08T08:25:10;102090.34;;;26.55;91.50
13013;BME280;22580;57.670;12.006;2023-09-08T08:27:38;102086.81;;;26.46;91.72
13013;BME280;22580;57.670;12.006;2023-09-08T08:30:06;102090.22;;;26.48;91.86
13013;BME280;22580;57.670;12.006;2023-09-08T08:32:33;102090.03;;;26.50;91.98
13013;BME280;22580;57.670;12.006;2023-09-08T08:35:02;102083.25;;;26.37;92.79
13013;BME280;22580;57.670;12.006;2023-09-08T08:37:31;102061.28;;;26.45;93.34
13013;BME280;22580;57.670;12.006;2023-09-08T08:39:58;102081.47;;;26.98;91.67
13013;BME280;22580;57.670;12.006;2023-09-08T08:42:31;102061.47;;;27.27;90.89
13013;BME280;22580;57.670;12.006;2023-09-08T08:44:59;102046.06;;;27.41;90.39
13013;BME280;22580;57.670;12.006;2023-09-08T08:47:29;102053.59;;;27.62;89.23
13013;BME280;22580;57.670;12.006;2023-09-08T08:49:57;102049.56;;;27.50;89.01
13013;BME280;22580;57.670;12.006;2023-09-08T08:52:27;102059.75;;;27.64;88.22
13013;BME280;22580;57.670;12.006;2023-09-08T08:54:54;102078.28;;;27.91;88.06
13013;BME280;22580;57.670;12.006;2023-09-08T08:57:22;102065.47;;;28.13;87.12
13013;BME280;22580;57.670;12.006;2023-09-08T08:59:52;102070.56;;;28.16;85.97
13013;BME280;22580;57.670;12.006;2023-09-08T09:02:21;102045.84;;;28.01;86.62
13013;BME280;22580;57.670;12.006;2023-09-08T09:04:49;102056.81;;;28.16;86.53
13013;BME280;22580;57.670;12.006;2023-09-08T09:07:18;102057.59;;;28.25;86.51
13013;BME280;22580;57.670;12.006;2023-09-08T09:09:47;102063.66;;;28.35;86.52
13013;BME280;22580;57.670;12.006;2023-09-08T09:12:14;102026.31;;;28.26;86.19
13013;BME280;22580;57.670;12.006;2023-09-08T09:14:45;102047.25;;;28.27;87.37
13013;BME280;22580;57.670;12.006;2023-09-08T09:17:13;102028.50;;;28.52;86.73
13013;BME280;22580;57.670;12.006;2023-09-08T09:19:40;102051.50;;;28.87;85.74
13013;BME280;22580;57.670;12.006;2023-09-08T09:22:10;102008.00;;;28.54;85.23
13013;BME280;22580;57.670;12.006;2023-09-08T09:24:39;102020.47;;;28.78;85.14
13013;BME280;22580;57.670;12.006;2023-09-08T09:27:13;102015.16;;;28.77;84.60
13013;BME280;22580;57.670;12.006;2023-09-08T09:29:46;102032.03;;;28.88;84.47
13013;BME280;22580;57.670;12.006;2023-09-08T09:32:15;102005.75;;;28.86;84.85
13013;BME280;22580;57.670;12.006;2023-09-08T09:34:51;101989.72;;;28.96;83.70
13013;BME280;22580;57.670;12.006;2023-09-08T09:37:26;102016.53;;;29.09;83.84
13013;BME280;22580;57.670;12.006;2023-09-08T09:39:54;102039.09;;;29.25;83.62
13013;BME280;22580;57.670;12.006;2023-09-08T09:42:23;102013.13;;;29.07;84.30
13013;BME280;22580;57.670;12.006;2023-09-08T09:44:51;102013.31;;;29.33;83.94
13013;BME280;22580;57.670;12.006;2023-09-08T09:47:26;102023.72;;;29.72;82.92
13013;BME280;22580;57.670;12.006;2023-09-08T09:49:54;102020.41;;;29.42;84.00
13013;BME280;22580;57.670;12.006;2023-09-08T09:52:24;102022.97;;;29.50;83.43
13013;BME280;22580;57.670;12.006;2023-09-08T09:54:52;101994.75;;;29.48;83.39
13013;BME280;22580;57.670;12.006;2023-09-08T09:57:23;102010.19;;;29.77;82.89
13013;BME280;22580;57.670;12.006;2023-09-08T09:59:53;102020.28;;;29.63;83.29
13013;BME280;22580;57.670;12.006;2023-09-08T10:02:25;101987.81;;;29.59;83.28
13013;BME280;22580;57.670;12.006;2023-09-08T10:04:53;101974.03;;;29.59;83.05
13013;BME280;22580;57.670;12.006;2023-09-08T10:07:23;102012.78;;;29.92;82.31
13013;BME280;22580;57.670;12.006;2023-09-08T10:09:50;101991.88;;;30.04;81.76
13013;BME280;22580;57.670;12.006;2023-09-08T10:12:18;101956.16;;;29.96;80.86
13013;BME280;22580;57.670;12.006;2023-09-08T10:14:53;102005.31;;;30.47;80.11
13013;BME280;22580;57.670;12.006;2023-09-08T10:17:25;102004.72;;;30.64;79.45
13013;BME280;22580;57.670;12.006;2023-09-08T10:19:57;101979.41;;;30.34;78.84
13013;BME280;22580;57.670;12.006;2023-09-08T10:22:37;101982.81;;;30.56;78.97
13013;BME280;22580;57.670;12.006;2023-09-08T10:25:06;101961.38;;;30.32;78.73
13013;BME280;22580;57.670;12.006;2023-09-08T10:27:34;101973.94;;;30.61;78.10
13013;BME280;22580;57.670;12.006;2023-09-08T10:30:06;101996.47;;;30.71;78.26
13013;BME280;22580;57.670;12.006;2023-09-08T10:32:35;101992.44;;;30.87;77.80
13013;BME280;22580;57.670;12.006;2023-09-08T10:35:04;101980.75;;;30.72;77.65
13013;BME280;22580;57.670;12.006;2023-09-08T10:37:31;102000.28;;;30.90;77.39
13013;BME280;22580;57.670;12.006;2023-09-08T10:40:22;101993.47;;;31.06;77.61
13013;BME280;22580;57.670;12.006;2023-09-08T10:43:05;101993.22;;;31.27;76.78
13013;BME280;22580;57.670;12.006;2023-09-08T10:45:34;101996.00;;;31.20;76.26
13013;BME280;22580;57.670;12.006;2023-09-08T10:48:02;101983.69;;;31.10;74.90
13013;BME280;22580;57.670;12.006;2023-09-08T10:50:33;102001.94;;;31.24;73.48
13013;BME280;22580;57.670;12.006;2023-09-08T10:53:07;101999.00;;;31.19;71.88
13013;BME280;22580;57.670;12.006;2023-09-08T10:55:39;101995.78;;;31.28;71.84
13013;BME280;22580;57.670;12.006;2023-09-08T10:58:11;101947.75;;;31.23;71.36
13013;BME280;22580;57.670;12.006;2023-09-08T11:00:50;101986.13;;;31.57;71.06
13013;BME280;22580;57.670;12.006;2023-09-08T11:03:27;101977.03;;;31.44;69.91
13013;BME280;22580;57.670;12.006;2023-09-08T11:05:56;101965.78;;;31.39;68.76
13013;BME280;22580;57.670;12.006;2023-09-08T11:08:27;101962.09;;;31.58;68.85
13013;BME280;22580;57.670;12.006;2023-09-08T11:10:56;101957.09;;;31.28;69.42
13013;BME280;22580;57.670;12.006;2023-09-08T11:13:24;101954.06;;;31.50;68.74
13013;BME280;22580;57.670;12.006;2023-09-08T11:15:55;101979.03;;;31.17;69.43
13013;BME280;22580;57.670;12.006;2023-09-08T11:18:26;101957.50;;;31.39;69.90
13013;BME280;22580;57.670;12.006;2023-09-08T11:20:54;101933.44;;;31.52;69.58
13013;BME280;22580;57.670;12.006;2023-09-08T11:23:23;101941.22;;;31.75;67.83
13013;BME280;22580;57.670;12.006;2023-09-08T11:25:55;101930.34;;;31.80;68.61
13013;BME280;22580;57.670;12.006;2023-09-08T11:28:34;101933.84;;;32.01;68.73
13013;BME280;22580;57.670;12.006;2023-09-08T11:31:11;101969.03;;;32.25;67.66
13013;BME280;22580;57.670;12.006;2023-09-08T11:33:40;101945.44;;;32.16;67.13
13013;BME280;22580;57.670;12.006;2023-09-08T11:36:17;101964.66;;;32.42;67.10
13013;BME280;22580;57.670;12.006;2023-09-08T11:38:45;101931.91;;;32.39;68.02
13013;BME280;22580;57.670;12.006;2023-09-08T11:41:14;101952.81;;;32.60;65.19
13013;BME280;22580;57.670;12.006;2023-09-08T11:43:42;101986.16;;;32.97;65.21
13013;BME280;22580;57.670;12.006;2023-09-08T11:46:24;101957.19;;;33.17;65.10
13013;BME280;22580;57.670;12.006;2023-09-08T11:48:54;101943.09;;;33.19;64.75
13013;BME280;22580;57.670;12.006;2023-09-08T11:51:22;101941.63;;;32.73;62.75
13013;BME280;22580;57.670;12.006;2023-09-08T11:53:50;101970.56;;;32.52;65.13
13013;BME280;22580;57.670;12.006;2023-09-08T11:56:19;101988.06;;;32.78;65.92
13013;BME280;22580;57.670;12.006;2023-09-08T11:58:56;101975.41;;;32.88;66.85
13013;BME280;22580;57.670;12.006;2023-09-08T12:01:27;101994.28;;;33.16;67.65
13013;BME280;22580;57.670;12.006;2023-09-08T12:03:57;101982.19;;;32.61;66.41
13013;BME280;22580;57.670;12.006;2023-09-08T12:06:25;101980.06;;;32.32;68.29
13013;BME280;22580;57.670;12.006;2023-09-08T12:08:56;101993.03;;;32.63;67.47
13013;BME280;22580;57.670;12.006;2023-09-08T12:11:24;101979.56;;;32.41;68.74
13013;BME280;22580;57.670;12.006;2023-09-08T12:14:00;101976.34;;;32.76;67.59
13013;BME280;22580;57.670;12.006;2023-09-08T12:16:29;102016.72;;;32.58;68.24
13013;BME280;22580;57.670;12.006;2023-09-08T12:18:56;102014.47;;;32.99;67.66
13013;BME280;22580;57.670;12.006;2023-09-08T12:21:54;102009.88;;;32.93;65.52
13013;BME280;22580;57.670;12.006;2023-09-08T12:24:45;102012.72;;;33.04;65.31
13013;BME280;22580;57.670;12.006;2023-09-08T12:27:14;101991.63;;;32.85;66.64
13013;BME280;22580;57.670;12.006;2023-09-08T12:29:51;102007.56;;;32.89;66.54
13013;BME280;22580;57.670;12.006;2023-09-08T12:32:26;101989.88;;;31.89;69.76
13013;BME280;22580;57.670;12.006;2023-09-08T12:34:53;102002.16;;;32.70;68.41
13013;BME280;22580;57.670;12.006;2023-09-08T12:37:21;102005.31;;;32.98;67.81
13013;BME280;22580;57.670;12.006;2023-09-08T12:39:49;101997.72;;;33.37;65.36
13013;BME280;22580;57.670;12.006;2023-09-08T12:42:18;101973.22;;;32.03;66.85
13013;BME280;22580;57.670;12.006;2023-09-08T12:44:46;101965.41;;;32.56;67.43
13013;BME280;22580;57.670;12.006;2023-09-08T12:47:15;101997.63;;;33.00;64.56
13013;BME280;22580;57.670;12.006;2023-09-08T12:49:44;101976.56;;;33.17;64.82